createdAt,value
2022-11-18T00:00:12.427Z,943.66
2022-11-18T00:01:12.397Z,943.63
2022-11-18T00:02:12.344Z,943.61
2022-11-18T00:03:12.423Z,943.59
2022-11-18T00:04:12.361Z,943.58
2022-11-18T00:05:12.445Z,943.56
2022-11-18T00:07:12.522Z,943.57
2022-11-18T00:08:12.352Z,943.59
2022-11-18T00:09:12.432Z,943.58
2022-11-18T00:10:12.390Z,943.61
2022-11-18T00:11:12.445Z,943.64
2022-11-18T00:12:12.451Z,943.62
2022-11-18T00:13:12.367Z,943.66
2022-11-18T00:14:12.412Z,943.68
2022-11-18T00:15:12.449Z,943.69
2022-11-18T00:16:12.429Z,943.75
2022-11-18T00:17:12.492Z,943.85
2022-11-18T00:18:12.372Z,943.91
2022-11-18T00:19:12.407Z,943.94
2022-11-18T00:20:12.478Z,943.98
2022-11-18T00:21:12.297Z,944.04
2022-11-18T00:22:12.331Z,944.05
2022-11-18T00:23:12.301Z,944.1
2022-11-18T00:24:12.447Z,944.12
2022-11-18T00:26:12.484Z,944.13
2022-11-18T00:27:12.320Z,944.2
2022-11-18T00:28:12.446Z,944.18
2022-11-18T00:29:12.303Z,944.17
2022-11-18T00:30:12.451Z,944.14
2022-11-18T00:31:12.515Z,944.16
2022-11-18T00:32:12.518Z,944.17
2022-11-18T00:33:12.457Z,944.16
2022-11-18T00:34:12.314Z,944.17
2022-11-18T00:35:12.507Z,944.18
2022-11-18T00:36:12.538Z,944.21
2022-11-18T00:37:12.373Z,944.18
2022-11-18T00:39:12.410Z,944.13
2022-11-18T00:40:12.602Z,944.16
2022-11-18T00:41:12.449Z,944.15
2022-11-18T00:42:12.519Z,944.16
2022-11-18T00:43:12.487Z,944.19
2022-11-18T00:44:12.524Z,944.2
2022-11-18T00:45:12.494Z,944.22
2022-11-18T00:46:13.470Z,944.23
2022-11-18T00:47:12.561Z,944.26
2022-11-18T00:48:12.543Z,944.27
2022-11-18T00:49:12.507Z,944.29
2022-11-18T00:50:12.440Z,944.28
2022-11-18T00:51:12.410Z,944.3
2022-11-18T00:53:12.472Z,944.35
2022-11-18T00:55:12.453Z,944.37
2022-11-18T00:56:12.473Z,944.36
2022-11-18T00:57:12.518Z,944.41
2022-11-18T00:58:12.478Z,944.4
2022-11-18T00:59:12.499Z,944.45
2022-11-18T01:00:12.608Z,944.46
2022-11-18T01:01:12.454Z,944.48
2022-11-18T01:03:12.667Z,944.46
2022-11-18T01:04:12.510Z,944.47
2022-11-18T01:05:12.513Z,944.46
2022-11-18T01:06:12.624Z,944.47
2022-11-18T01:07:12.671Z,944.46
2022-11-18T01:08:12.437Z,944.47
2022-11-18T01:09:12.432Z,944.45
2022-11-18T01:10:12.572Z,944.48
2022-11-18T01:11:12.626Z,944.52
2022-11-18T01:12:12.585Z,944.53
2022-11-18T01:13:12.550Z,944.6
2022-11-18T01:14:12.518Z,944.52
2022-11-18T01:15:12.594Z,944.61
2022-11-18T01:16:12.617Z,944.64
2022-11-18T01:17:12.532Z,944.67
2022-11-18T01:18:12.503Z,944.69
2022-11-18T01:19:12.456Z,944.74
2022-11-18T01:20:12.515Z,944.77
2022-11-18T01:21:12.695Z,944.76
2022-11-18T01:22:12.558Z,944.78
2022-11-18T01:24:12.652Z,944.77
2022-11-18T01:25:12.620Z,944.79
2022-11-18T01:26:12.480Z,944.72
2022-11-18T01:27:12.531Z,944.75
2022-11-18T01:28:12.605Z,944.76
2022-11-18T01:29:12.569Z,944.78
2022-11-18T01:30:12.610Z,944.83
2022-11-18T01:31:12.596Z,944.8
2022-11-18T01:32:25.184Z,944.84
2022-11-18T01:33:12.587Z,944.82
2022-11-18T01:34:12.588Z,944.84
2022-11-18T01:36:12.570Z,944.83
2022-11-18T01:37:12.615Z,944.89
2022-11-18T01:38:12.630Z,944.87
2022-11-18T01:39:12.610Z,944.84
2022-11-18T01:40:12.612Z,944.85
2022-11-18T01:41:12.633Z,944.83
2022-11-18T01:42:12.554Z,944.79
2022-11-18T01:43:12.600Z,944.73
2022-11-18T01:44:12.577Z,944.72
2022-11-18T01:46:12.639Z,944.69
2022-11-18T01:47:12.516Z,944.71
2022-11-18T01:48:12.584Z,944.69
2022-11-18T01:49:12.548Z,944.8
2022-11-18T01:50:12.698Z,944.82
2022-11-18T01:51:12.685Z,944.88
2022-11-18T01:52:12.664Z,944.91
2022-11-18T01:54:12.688Z,944.93
2022-11-18T01:55:12.629Z,944.94
2022-11-18T01:56:12.570Z,945.01
2022-11-18T01:57:12.687Z,945
2022-11-18T01:58:12.592Z,945.02
2022-11-18T01:59:12.500Z,945.07
2022-11-18T02:00:12.696Z,945.04
2022-11-18T02:01:12.722Z,945.05
2022-11-18T02:02:12.739Z,945.1
2022-11-18T02:04:12.626Z,945.11
2022-11-18T02:06:12.655Z,945.12
2022-11-18T02:07:12.625Z,945.17
2022-11-18T02:08:12.694Z,945.18
2022-11-18T02:09:12.646Z,945.19
2022-11-18T02:10:12.632Z,945.2
2022-11-18T02:11:12.625Z,945.27
2022-11-18T02:12:12.673Z,945.2
2022-11-18T02:13:12.592Z,945.16
2022-11-18T02:14:12.704Z,945.24
2022-11-18T02:15:12.638Z,945.19
2022-11-18T02:16:13.980Z,945.22
2022-11-18T02:17:12.716Z,945.15
2022-11-18T02:18:12.733Z,945.09
2022-11-18T02:19:12.613Z,945.21
2022-11-18T02:20:12.723Z,945.07
2022-11-18T02:21:12.786Z,945.25
2022-11-18T02:22:12.695Z,945.26
2022-11-18T02:25:14.008Z,945.28
2022-11-18T02:26:12.720Z,945.32
2022-11-18T02:27:12.651Z,945.35
2022-11-18T02:28:12.820Z,945.41
2022-11-18T02:29:12.719Z,945.4
2022-11-18T02:30:12.690Z,945.41
2022-11-18T02:31:12.657Z,945.42
2022-11-18T02:32:12.623Z,945.4
2022-11-18T02:33:12.762Z,945.46
2022-11-18T02:34:12.734Z,945.42
2022-11-18T02:35:12.726Z,945.44
2022-11-18T02:36:12.734Z,945.45
2022-11-18T02:37:12.727Z,945.48
2022-11-18T02:38:12.838Z,945.53
2022-11-18T02:40:14.087Z,945.55
2022-11-18T02:41:12.718Z,945.53
2022-11-18T02:42:12.714Z,945.55
2022-11-18T02:43:12.707Z,945.59
2022-11-18T02:44:12.636Z,945.58
2022-11-18T02:46:12.691Z,945.59
2022-11-18T02:47:12.752Z,945.57
2022-11-18T02:48:12.618Z,945.56
2022-11-18T02:49:12.864Z,945.59
2022-11-18T02:50:12.701Z,945.57
2022-11-18T02:51:12.665Z,945.52
2022-11-18T02:52:12.868Z,945.55
2022-11-18T02:53:12.648Z,945.54
2022-11-18T02:54:12.795Z,945.55
2022-11-18T02:55:12.679Z,945.54
2022-11-18T02:57:12.816Z,945.51
2022-11-18T02:58:12.887Z,945.48
2022-11-18T02:59:12.776Z,945.47
2022-11-18T03:02:12.804Z,945.48
2022-11-18T03:04:12.882Z,945.5
2022-11-18T03:05:12.799Z,945.47
2022-11-18T03:06:12.815Z,945.49
2022-11-18T03:07:12.981Z,945.5
2022-11-18T03:08:12.772Z,945.54
2022-11-18T03:09:12.905Z,945.53
2022-11-18T03:10:12.865Z,945.55
2022-11-18T03:11:12.782Z,945.57
2022-11-18T03:12:12.916Z,945.56
2022-11-18T03:13:12.857Z,945.59
2022-11-18T03:14:12.765Z,945.55
2022-11-18T03:16:12.883Z,945.59
2022-11-18T03:17:12.841Z,945.57
2022-11-18T03:18:12.799Z,945.56
2022-11-18T03:20:12.825Z,945.54
2022-11-18T03:21:12.721Z,945.62
2022-11-18T03:22:12.903Z,945.61
2022-11-18T03:23:12.765Z,945.65
2022-11-18T03:25:12.834Z,945.7
2022-11-18T03:26:12.837Z,945.69
2022-11-18T03:27:12.876Z,945.72
2022-11-18T03:28:12.813Z,945.74
2022-11-18T03:29:12.895Z,945.71
2022-11-18T03:30:12.876Z,945.72
2022-11-18T03:31:12.816Z,945.76
2022-11-18T03:32:12.859Z,945.77
2022-11-18T03:33:12.768Z,945.76
2022-11-18T03:34:12.816Z,945.78
2022-11-18T03:35:12.863Z,945.79
2022-11-18T03:36:12.760Z,945.82
2022-11-18T03:39:12.875Z,945.84
2022-11-18T03:40:12.785Z,945.86
2022-11-18T03:41:12.771Z,945.83
2022-11-18T03:42:12.914Z,945.85
2022-11-18T03:43:12.873Z,945.86
2022-11-18T03:44:12.953Z,945.82
2022-11-18T03:45:12.799Z,945.8
2022-11-18T03:46:14.527Z,945.83
2022-11-18T03:47:12.964Z,945.86
2022-11-18T03:48:12.765Z,945.84
2022-11-18T03:49:12.798Z,945.86
2022-11-18T03:50:12.817Z,945.82
2022-11-18T03:51:12.876Z,945.84
2022-11-18T03:52:12.995Z,945.86
2022-11-18T03:53:12.854Z,945.79
2022-11-18T03:54:12.854Z,945.82
2022-11-18T03:55:12.988Z,945.87
2022-11-18T03:57:12.862Z,945.91
2022-11-18T03:58:12.823Z,945.93
2022-11-18T03:59:12.841Z,945.99
2022-11-18T04:00:12.833Z,945.96
2022-11-18T04:01:12.975Z,946.06
2022-11-18T04:02:13.022Z,946.03
2022-11-18T04:03:12.869Z,946.08
2022-11-18T04:04:14.112Z,946.13
2022-11-18T04:05:12.997Z,946.11
2022-11-18T04:06:12.988Z,946.12
2022-11-18T04:07:12.978Z,946.13
2022-11-18T04:08:12.839Z,946.12
2022-11-18T04:09:12.904Z,946.13
2022-11-18T04:10:13.036Z,946.18
2022-11-18T04:11:12.962Z,946.14
2022-11-18T04:12:12.952Z,946.1
2022-11-18T04:13:12.945Z,946.12
2022-11-18T04:14:13.057Z,946.14
2022-11-18T04:15:12.957Z,946.15
2022-11-18T04:16:12.912Z,946.16
2022-11-18T04:17:12.904Z,946.23
2022-11-18T04:18:14.180Z,946.21
2022-11-18T04:19:12.964Z,946.24
2022-11-18T04:20:13.030Z,946.28
2022-11-18T04:21:13.057Z,946.27
2022-11-18T04:22:13.064Z,946.31
2022-11-18T04:23:13.033Z,946.34
2022-11-18T04:24:12.885Z,946.32
2022-11-18T04:25:12.931Z,946.33
2022-11-18T04:26:12.897Z,946.36
2022-11-18T04:27:12.992Z,946.33
2022-11-18T04:28:12.929Z,946.35
2022-11-18T04:29:13.088Z,946.4
2022-11-18T04:30:12.888Z,946.39
2022-11-18T04:31:12.983Z,946.37
2022-11-18T04:32:13.021Z,946.41
2022-11-18T04:34:12.984Z,946.43
2022-11-18T04:35:13.046Z,946.4
2022-11-18T04:36:12.979Z,946.44
2022-11-18T04:38:15.579Z,946.43
2022-11-18T04:39:13.129Z,946.41
2022-11-18T04:42:13.011Z,946.4
2022-11-18T04:43:13.019Z,946.39
2022-11-18T04:44:13.109Z,946.38
2022-11-18T04:45:12.963Z,946.36
2022-11-18T04:46:13.050Z,946.41
2022-11-18T04:47:13.051Z,946.39
2022-11-18T04:48:14.502Z,946.43
2022-11-18T04:49:13.016Z,946.4
2022-11-18T04:50:13.038Z,946.43
2022-11-18T04:52:13.118Z,946.41
2022-11-18T04:55:13.113Z,946.44
2022-11-18T04:56:13.130Z,946.41
2022-11-18T04:57:13.057Z,946.44
2022-11-18T04:58:13.077Z,946.48
2022-11-18T04:59:13.078Z,946.47
2022-11-18T05:00:13.040Z,946.46
2022-11-18T05:01:13.115Z,946.47
2022-11-18T05:02:13.955Z,946.48
2022-11-18T05:03:12.998Z,946.56
2022-11-18T05:04:13.003Z,946.55
2022-11-18T05:06:13.066Z,946.56
2022-11-18T05:07:13.176Z,946.53
2022-11-18T05:08:12.972Z,946.55
2022-11-18T05:09:12.956Z,946.61
2022-11-18T05:11:13.160Z,946.63
2022-11-18T05:12:12.975Z,946.65
2022-11-18T05:13:13.073Z,946.63
2022-11-18T05:14:13.159Z,946.68
2022-11-18T05:15:13.113Z,946.7
2022-11-18T05:16:13.107Z,946.66
2022-11-18T05:17:13.026Z,946.65
2022-11-18T05:18:12.995Z,946.66
2022-11-18T05:19:12.984Z,946.67
2022-11-18T05:21:13.128Z,946.69
2022-11-18T05:23:13.071Z,946.73
2022-11-18T05:25:13.045Z,946.84
2022-11-18T05:26:13.100Z,946.81
2022-11-18T05:27:13.034Z,946.85
2022-11-18T05:29:13.105Z,946.9
2022-11-18T05:30:13.158Z,946.93
2022-11-18T05:31:13.226Z,946.9
2022-11-18T05:32:13.234Z,946.92
2022-11-18T05:33:13.194Z,946.91
2022-11-18T05:34:13.211Z,946.93
2022-11-18T05:35:13.061Z,946.9
2022-11-18T05:36:13.182Z,946.92
2022-11-18T05:37:13.077Z,946.89
2022-11-18T05:38:13.182Z,946.92
2022-11-18T05:39:13.214Z,946.91
2022-11-18T05:40:13.132Z,946.84
2022-11-18T05:41:13.113Z,946.86
2022-11-18T05:42:13.071Z,946.88
2022-11-18T05:43:13.098Z,946.9
2022-11-18T05:44:13.179Z,946.86
2022-11-18T05:45:13.131Z,946.94
2022-11-18T05:46:13.096Z,946.95
2022-11-18T05:47:13.063Z,946.93
2022-11-18T05:48:13.209Z,946.97
2022-11-18T05:49:13.266Z,946.98
2022-11-18T05:50:16.081Z,947.01
2022-11-18T05:51:13.287Z,946.99
2022-11-18T05:52:13.225Z,947.02
2022-11-18T05:53:13.234Z,947.01
2022-11-18T05:54:13.156Z,947.02
2022-11-18T05:55:13.146Z,947.01
2022-11-18T05:56:13.171Z,947.04
2022-11-18T05:57:13.207Z,947.01
2022-11-18T05:58:13.309Z,946.95
2022-11-18T05:59:13.178Z,946.99
2022-11-18T06:00:13.166Z,947.01
2022-11-18T06:01:13.262Z,947
2022-11-18T06:02:13.196Z,947.04
2022-11-18T06:03:13.229Z,947.11
2022-11-18T06:04:13.163Z,947.24
2022-11-18T06:05:13.249Z,947.4
2022-11-18T06:06:13.177Z,947.52
2022-11-18T06:07:13.228Z,947.56
2022-11-18T06:08:13.155Z,947.58
2022-11-18T06:09:13.231Z,947.62
2022-11-18T06:10:13.214Z,947.6
2022-11-18T06:11:13.295Z,947.58
2022-11-18T06:12:13.261Z,947.57
2022-11-18T06:13:13.190Z,947.61
2022-11-18T06:14:13.233Z,947.6
2022-11-18T06:15:13.178Z,947.66
2022-11-18T06:16:13.210Z,947.64
2022-11-18T06:18:13.360Z,947.66
2022-11-18T06:20:13.240Z,947.67
2022-11-18T06:21:13.335Z,947.69
2022-11-18T06:22:13.220Z,947.71
2022-11-18T06:23:13.330Z,947.75
2022-11-18T06:24:13.237Z,947.77
2022-11-18T06:25:13.332Z,947.78
2022-11-18T06:26:13.245Z,947.8
2022-11-18T06:27:13.383Z,947.81
2022-11-18T06:28:13.245Z,947.87
2022-11-18T06:29:13.275Z,947.85
2022-11-18T06:30:13.373Z,947.88
2022-11-18T06:31:13.321Z,947.89
2022-11-18T06:32:13.324Z,947.9
2022-11-18T06:33:13.250Z,947.91
2022-11-18T06:35:13.250Z,947.95
2022-11-18T06:36:13.380Z,947.96
2022-11-18T06:37:13.354Z,947.97
2022-11-18T06:38:13.317Z,948
2022-11-18T06:39:13.366Z,947.99
2022-11-18T06:40:13.312Z,948.01
2022-11-18T06:41:13.329Z,948.04
2022-11-18T06:42:13.341Z,948.02
2022-11-18T06:43:13.340Z,948.06
2022-11-18T06:45:13.247Z,948.07
2022-11-18T06:46:13.409Z,948.1
2022-11-18T06:47:14.624Z,948.11
2022-11-18T06:49:13.365Z,948.09
2022-11-18T06:50:13.300Z,948.1
2022-11-18T06:51:13.356Z,948.14
2022-11-18T06:52:13.371Z,948.17
2022-11-18T06:54:13.461Z,948.21
2022-11-18T06:55:13.323Z,948.24
2022-11-18T06:56:13.314Z,948.28
2022-11-18T06:57:13.207Z,948.26
2022-11-18T06:58:13.198Z,948.33
2022-11-18T07:00:13.469Z,948.37
2022-11-18T07:01:13.361Z,948.33
2022-11-18T07:02:13.223Z,948.36
2022-11-18T07:03:13.355Z,948.38
2022-11-18T07:04:13.429Z,948.39
2022-11-18T07:05:13.285Z,948.4
2022-11-18T07:06:13.428Z,948.44
2022-11-18T07:07:13.415Z,948.42
2022-11-18T07:08:13.453Z,948.41
2022-11-18T07:09:13.370Z,948.46
2022-11-18T07:10:13.331Z,948.47
2022-11-18T07:11:13.486Z,948.5
2022-11-18T07:13:13.331Z,948.52
2022-11-18T07:15:13.312Z,948.53
2022-11-18T07:16:13.476Z,948.52
2022-11-18T07:17:13.477Z,948.57
2022-11-18T07:19:13.388Z,948.62
2022-11-18T07:21:13.378Z,948.66
2022-11-18T07:22:13.549Z,948.68
2022-11-18T07:24:13.405Z,948.69
2022-11-18T07:25:13.419Z,948.67
2022-11-18T07:26:13.324Z,948.7
2022-11-18T07:27:13.370Z,948.78
2022-11-18T07:28:13.400Z,948.74
2022-11-18T07:29:13.374Z,948.76
2022-11-18T07:30:13.428Z,948.8
2022-11-18T07:32:13.464Z,948.82
2022-11-18T07:33:13.448Z,948.84
2022-11-18T07:34:13.446Z,948.83
2022-11-18T07:35:13.450Z,948.85
2022-11-18T07:36:13.464Z,948.86
2022-11-18T07:37:13.538Z,948.85
2022-11-18T07:38:13.489Z,948.86
2022-11-18T07:39:13.491Z,948.87
2022-11-18T07:40:14.499Z,948.88
2022-11-18T07:41:13.499Z,948.87
2022-11-18T07:42:13.382Z,948.95
2022-11-18T07:45:13.429Z,948.97
2022-11-18T07:46:13.415Z,948.98
2022-11-18T07:47:13.496Z,949
2022-11-18T07:48:13.484Z,949.03
2022-11-18T07:50:13.398Z,949.08
2022-11-18T07:52:13.529Z,949.09
2022-11-18T07:53:13.515Z,949.13
2022-11-18T07:54:13.556Z,949.1
2022-11-18T07:55:13.509Z,949.15
2022-11-18T07:56:13.418Z,949.14
2022-11-18T07:57:13.537Z,949.12
2022-11-18T07:59:13.476Z,949.15
2022-11-18T08:00:13.537Z,949.17
2022-11-18T08:02:13.402Z,949.16
2022-11-18T08:03:14.471Z,949.17
2022-11-18T08:04:13.568Z,949.19
2022-11-18T08:05:17.621Z,949.21
2022-11-18T08:06:13.604Z,949.24
2022-11-18T08:07:13.545Z,949.23
2022-11-18T08:09:14.703Z,949.22
2022-11-18T08:10:13.503Z,949.25
2022-11-18T08:11:16.232Z,949.26
2022-11-18T08:12:13.513Z,949.28
2022-11-18T08:14:13.490Z,949.29
2022-11-18T08:15:13.590Z,949.3
2022-11-18T08:16:13.514Z,949.34
2022-11-18T08:17:13.487Z,949.31
2022-11-18T08:18:13.776Z,949.32
2022-11-18T08:19:13.449Z,949.34
2022-11-18T08:20:13.445Z,949.31
2022-11-18T08:21:13.512Z,949.32
2022-11-18T08:22:13.504Z,949.34
2022-11-18T08:23:13.439Z,949.33
2022-11-18T08:24:13.544Z,949.31
2022-11-18T08:25:13.452Z,949.33
2022-11-18T08:26:13.650Z,949.36
2022-11-18T08:27:13.540Z,949.31
2022-11-18T08:28:13.586Z,949.34
2022-11-18T08:29:13.684Z,949.32
2022-11-18T08:30:13.578Z,949.36
2022-11-18T08:31:13.757Z,949.34
2022-11-18T08:32:13.493Z,949.35
2022-11-18T08:34:13.579Z,949.37
2022-11-18T08:35:13.513Z,949.34
2022-11-18T08:36:13.646Z,949.39
2022-11-18T08:37:13.634Z,949.4
2022-11-18T08:38:13.539Z,949.39
2022-11-18T08:39:13.640Z,949.36
2022-11-18T08:40:13.525Z,949.37
2022-11-18T08:41:14.918Z,949.33
2022-11-18T08:42:13.505Z,949.32
2022-11-18T08:43:13.601Z,949.33
2022-11-18T08:44:13.737Z,949.29
2022-11-18T08:45:13.513Z,949.37
2022-11-18T08:46:13.676Z,949.34
2022-11-18T08:47:13.670Z,949.32
2022-11-18T08:48:13.529Z,949.36
2022-11-18T08:49:13.543Z,949.35
2022-11-18T08:50:13.530Z,949.37
2022-11-18T08:51:13.654Z,949.38
2022-11-18T08:52:13.563Z,949.37
2022-11-18T08:55:13.603Z,949.32
2022-11-18T08:56:13.689Z,949.34
2022-11-18T08:57:13.574Z,949.35
2022-11-18T08:58:13.636Z,949.37
2022-11-18T08:59:13.593Z,949.38
2022-11-18T09:01:13.812Z,949.41
2022-11-18T09:02:13.563Z,949.4
2022-11-18T09:03:13.596Z,949.43
2022-11-18T09:04:13.626Z,949.46
2022-11-18T09:05:13.649Z,949.43
2022-11-18T09:06:13.633Z,949.5
2022-11-18T09:07:13.702Z,949.47
2022-11-18T09:08:13.659Z,949.48
2022-11-18T09:09:13.681Z,949.46
2022-11-18T09:10:15.047Z,949.47
2022-11-18T09:11:13.573Z,949.46
2022-11-18T09:13:40.245Z,949.48
2022-11-18T09:15:11.512Z,949.46
2022-11-18T09:15:15.025Z,949.52
2022-11-18T09:16:15.038Z,949.53
2022-11-18T09:17:13.675Z,949.55
2022-11-18T09:18:13.684Z,949.53
2022-11-18T09:19:39.936Z,949.58
2022-11-18T09:20:13.607Z,949.59
2022-11-18T09:21:13.770Z,949.62
2022-11-18T09:22:13.621Z,949.6
2022-11-18T09:23:13.581Z,949.63
2022-11-18T09:24:14.641Z,949.65
2022-11-18T09:25:13.714Z,949.63
2022-11-18T09:26:13.685Z,949.69
2022-11-18T09:27:16.580Z,949.71
2022-11-18T09:28:13.823Z,949.7
2022-11-18T09:29:13.626Z,949.65
2022-11-18T09:30:13.596Z,949.64
2022-11-18T09:31:13.767Z,949.65
2022-11-18T09:32:13.697Z,949.64
2022-11-18T09:33:17.874Z,949.61
2022-11-18T09:34:13.836Z,949.6
2022-11-18T09:35:13.720Z,949.64
2022-11-18T09:36:14.671Z,949.65
2022-11-18T09:37:13.781Z,949.67
2022-11-18T09:38:13.768Z,949.68
2022-11-18T09:39:13.611Z,949.71
2022-11-18T09:40:13.743Z,949.7
2022-11-18T09:41:13.669Z,949.72
2022-11-18T09:44:13.692Z,949.73
2022-11-18T09:45:16.144Z,949.76
2022-11-18T09:46:13.823Z,949.74
2022-11-18T09:47:13.763Z,949.77
2022-11-18T09:48:13.701Z,949.83
2022-11-18T09:49:13.806Z,949.79
2022-11-18T09:50:34.265Z,949.78
2022-11-18T09:51:14.921Z,949.77
2022-11-18T09:52:13.656Z,949.8
2022-11-18T09:53:13.688Z,949.83
2022-11-18T09:54:13.778Z,949.88
2022-11-18T09:55:13.658Z,949.83
2022-11-18T09:57:13.692Z,949.84
2022-11-18T09:58:13.677Z,949.89
2022-11-18T09:59:13.662Z,949.85
2022-11-18T10:00:13.864Z,949.86
2022-11-18T10:01:13.719Z,949.85
2022-11-18T10:02:13.828Z,949.88
2022-11-18T10:03:13.720Z,949.9
2022-11-18T10:04:13.823Z,949.92
2022-11-18T10:05:13.695Z,949.9
2022-11-18T10:06:14.167Z,949.94
2022-11-18T10:07:13.837Z,949.9
2022-11-18T10:08:13.823Z,949.92
2022-11-18T10:09:13.693Z,949.93
2022-11-18T10:10:13.782Z,949.94
2022-11-18T10:11:13.767Z,949.96
2022-11-18T10:12:13.814Z,949.94
2022-11-18T10:13:13.821Z,949.98
2022-11-18T10:14:13.842Z,950
2022-11-18T10:15:13.830Z,949.96
2022-11-18T10:18:18.769Z,949.99
2022-11-18T10:19:13.836Z,950
2022-11-18T10:20:13.873Z,949.97
2022-11-18T10:21:13.722Z,949.98
2022-11-18T10:22:18.217Z,950
2022-11-18T10:23:13.986Z,949.99
2022-11-18T10:25:13.816Z,950.01
2022-11-18T10:26:13.892Z,950.02
2022-11-18T10:28:13.835Z,950.05
2022-11-18T10:29:15.164Z,950.08
2022-11-18T10:31:13.948Z,950.05
2022-11-18T10:32:13.869Z,950.06
2022-11-18T10:33:13.876Z,950.07
2022-11-18T10:34:13.832Z,950.04
2022-11-18T10:35:13.805Z,950.07
2022-11-18T10:36:13.943Z,950.06
2022-11-18T10:37:13.855Z,950.08
2022-11-18T10:39:13.854Z,950.13
2022-11-18T10:40:13.864Z,950.08
2022-11-18T10:41:13.834Z,950.11
2022-11-18T10:42:13.789Z,950.1
2022-11-18T10:43:13.910Z,950.05
2022-11-18T10:44:13.941Z,950.09
2022-11-18T10:45:13.789Z,950.08
2022-11-18T10:46:13.963Z,950.09
2022-11-18T10:47:13.784Z,950.07
2022-11-18T10:48:13.845Z,950.03
2022-11-18T10:49:14.029Z,950.04
2022-11-18T10:50:13.899Z,950.05
2022-11-18T10:51:13.888Z,950.02
2022-11-18T10:52:15.139Z,950
2022-11-18T10:54:13.941Z,950.03
2022-11-18T10:55:13.804Z,950.01
2022-11-18T10:59:13.996Z,950.02
2022-11-18T11:00:13.892Z,950.01
2022-11-18T11:02:14.025Z,950.04
2022-11-18T11:03:13.859Z,950.05
2022-11-18T11:05:13.955Z,950.06
2022-11-18T11:06:14.055Z,950.07
2022-11-18T11:08:34.896Z,950.08
2022-11-18T11:09:13.895Z,950.09
2022-11-18T11:10:13.977Z,950.11
2022-11-18T11:11:13.893Z,950.14
2022-11-18T11:12:14.002Z,950.12
2022-11-18T11:13:13.848Z,950.14
2022-11-18T11:15:14.018Z,950.16
2022-11-18T11:16:14.063Z,950.15
2022-11-18T11:18:13.900Z,950.19
2022-11-18T11:19:14.035Z,950.18
2022-11-18T11:20:13.880Z,950.2
2022-11-18T11:21:13.927Z,950.15
2022-11-18T11:22:14.023Z,950.16
2022-11-18T11:23:16.663Z,950.22
2022-11-18T11:25:13.982Z,950.23
2022-11-18T11:29:14.144Z,950.25
2022-11-18T11:30:15.408Z,950.24
2022-11-18T11:31:14.002Z,950.22
2022-11-18T11:32:14.038Z,950.23
2022-11-18T11:33:14.103Z,950.22
2022-11-18T11:34:14.056Z,950.21
2022-11-18T11:35:13.916Z,950.23
2022-11-18T11:36:14.076Z,950.2
2022-11-18T11:37:14.046Z,950.26
2022-11-18T11:38:13.904Z,950.23
2022-11-18T11:42:13.941Z,950.22
2022-11-18T11:43:14.028Z,950.28
2022-11-18T11:44:14.018Z,950.31
2022-11-18T11:45:14.077Z,950.3
2022-11-18T11:46:14.042Z,950.32
2022-11-18T11:47:14.001Z,950.31
2022-11-18T11:48:14.075Z,950.35
2022-11-18T11:49:13.977Z,950.33
2022-11-18T11:50:14.044Z,950.37
2022-11-18T11:51:13.996Z,950.33
2022-11-18T11:52:14.140Z,950.31
2022-11-18T11:53:14.167Z,950.3
2022-11-18T11:54:14.196Z,950.32
2022-11-18T11:56:17.138Z,950.31
2022-11-18T11:57:14.128Z,950.38
2022-11-18T11:59:13.990Z,950.42
2022-11-18T12:00:14.147Z,950.43
2022-11-18T12:01:13.990Z,950.46
2022-11-18T12:02:14.046Z,950.44
2022-11-18T12:03:14.138Z,950.47
2022-11-18T12:04:14.086Z,950.46
2022-11-18T12:06:13.974Z,950.44
2022-11-18T12:08:14.028Z,950.41
2022-11-18T12:09:14.088Z,950.44
2022-11-18T12:10:14.004Z,950.47
2022-11-18T12:11:13.951Z,950.45
2022-11-18T12:12:14.110Z,950.46
2022-11-18T12:13:14.056Z,950.47
2022-11-18T12:14:14.066Z,950.46
2022-11-18T12:15:14.124Z,950.51
2022-11-18T12:16:14.017Z,950.49
2022-11-18T12:19:14.028Z,950.54
2022-11-18T12:20:14.124Z,950.53
2022-11-18T12:21:14.089Z,950.55
2022-11-18T12:22:14.217Z,950.5
2022-11-18T12:24:14.165Z,950.52
2022-11-18T12:25:14.088Z,950.55
2022-11-18T12:26:14.153Z,950.51
2022-11-18T12:27:14.210Z,950.55
2022-11-18T12:28:14.071Z,950.52
2022-11-18T12:29:14.137Z,950.54
2022-11-18T12:31:14.084Z,950.53
2022-11-18T12:33:14.094Z,950.59
2022-11-18T12:34:14.105Z,950.58
2022-11-18T12:35:14.180Z,950.59
2022-11-18T12:36:14.065Z,950.48
2022-11-18T12:37:14.233Z,950.5
2022-11-18T12:38:14.285Z,950.54
2022-11-18T12:39:14.143Z,950.57
2022-11-18T12:40:15.370Z,950.54
2022-11-18T12:41:14.257Z,950.53
2022-11-18T12:42:14.057Z,950.51
2022-11-18T12:43:14.146Z,950.5
2022-11-18T12:44:14.056Z,950.54
2022-11-18T12:45:15.331Z,950.53
2022-11-18T12:46:14.247Z,950.55
2022-11-18T12:47:14.174Z,950.57
2022-11-18T12:48:14.164Z,950.55
2022-11-18T12:49:14.235Z,950.6
2022-11-18T12:51:14.307Z,950.57
2022-11-18T12:52:14.251Z,950.62
2022-11-18T12:53:14.251Z,950.59
2022-11-18T12:54:14.172Z,950.62
2022-11-18T12:55:14.207Z,950.59
2022-11-18T12:57:14.240Z,950.56
2022-11-18T12:58:14.263Z,950.57
2022-11-18T12:59:14.139Z,950.6
2022-11-18T13:00:14.179Z,950.61
2022-11-18T13:01:14.378Z,950.59
2022-11-18T13:02:14.189Z,950.58
2022-11-18T13:03:15.520Z,950.6
2022-11-18T13:04:14.245Z,950.58
2022-11-18T13:05:14.191Z,950.59
2022-11-18T13:06:14.242Z,950.56
2022-11-18T13:07:14.241Z,950.58
2022-11-18T13:08:14.297Z,950.59
2022-11-18T13:09:14.276Z,950.52
2022-11-18T13:10:14.226Z,950.58
2022-11-18T13:11:14.334Z,950.54
2022-11-18T13:14:14.285Z,950.53
2022-11-18T13:16:14.250Z,950.47
2022-11-18T13:17:14.177Z,950.46
2022-11-18T13:18:14.199Z,950.45
2022-11-18T13:20:14.208Z,950.47
2022-11-18T13:21:14.384Z,950.55
2022-11-18T13:22:14.167Z,950.46
2022-11-18T13:23:18.599Z,950.49
2022-11-18T13:24:14.296Z,950.51
2022-11-18T13:25:14.203Z,950.54
2022-11-18T13:26:14.456Z,950.56
2022-11-18T13:27:14.331Z,950.55
2022-11-18T13:28:14.308Z,950.56
2022-11-18T13:29:16.508Z,950.55
2022-11-18T13:30:14.182Z,950.6
2022-11-18T13:31:14.340Z,950.59
2022-11-18T13:32:14.295Z,950.63
2022-11-18T13:33:14.270Z,950.58
2022-11-18T13:35:14.370Z,950.6
2022-11-18T13:36:14.393Z,950.58
2022-11-18T13:37:14.295Z,950.51
2022-11-18T13:38:14.344Z,950.58
2022-11-18T13:39:14.414Z,950.61
2022-11-18T13:40:14.309Z,950.62
2022-11-18T13:41:14.350Z,950.55
2022-11-18T13:42:14.340Z,950.53
2022-11-18T13:46:14.303Z,950.51
2022-11-18T13:47:14.256Z,950.55
2022-11-18T13:50:14.220Z,950.56
2022-11-18T13:51:14.394Z,950.57
2022-11-18T13:52:14.323Z,950.6
2022-11-18T13:53:14.382Z,950.57
2022-11-18T13:54:14.227Z,950.55
2022-11-18T13:55:14.286Z,950.52
2022-11-18T13:56:14.296Z,950.49
2022-11-18T13:57:14.354Z,950.46
2022-11-18T13:58:14.380Z,950.5
2022-11-18T13:59:18.394Z,950.47
2022-11-18T14:00:14.275Z,950.48
2022-11-18T14:01:14.445Z,950.5
2022-11-18T14:02:14.293Z,950.54
2022-11-18T14:03:14.417Z,950.56
2022-11-18T14:04:14.228Z,950.59
2022-11-18T14:05:17.669Z,950.61
2022-11-18T14:06:14.267Z,950.6
2022-11-18T14:07:14.559Z,950.59
2022-11-18T14:08:14.266Z,950.6
2022-11-18T14:09:14.223Z,950.63
2022-11-18T14:10:14.314Z,950.62
2022-11-18T14:11:14.450Z,950.67
2022-11-18T14:12:14.438Z,950.68
2022-11-18T14:13:14.328Z,950.72
2022-11-18T14:14:14.386Z,950.71
2022-11-18T14:15:14.402Z,950.73
2022-11-18T14:16:14.393Z,950.79
2022-11-18T14:17:14.438Z,950.72
2022-11-18T14:18:14.430Z,950.73
2022-11-18T14:19:15.839Z,950.67
2022-11-18T14:20:14.385Z,950.7
2022-11-18T14:21:14.447Z,950.72
2022-11-18T14:22:14.502Z,950.7